Time;durP1;ratioP1;P1;durP2;ratioP2;P2;SDS_P1;SDS_P2;PMS_P1;PMS_P2;Temp;Humidity;BMP_temperature;BMP_pressure;BME280_temperature;BME280_humidity;BME280_pressure;Samples;Min_cycle;Max_cycle;Signal;HPM_P1;HPM_P2
2023/09/27 00:00:42;;;;;;;26.42;24.08;;;;;;;;;;5097462;28;20048;-80
2023/09/27 00:03:08;;;;;;;23.83;21.83;;;;;;;;;;5079644;28;20154;-80
2023/09/27 00:05:34;;;;;;;27.45;24.92;;;;;;;;;;5079104;28;20044;-80
2023/09/27 00:08:00;;;;;;;29.25;26.73;;;;;;;;;;5062874;28;20087;-80
2023/09/27 00:10:27;;;;;;;25.85;23.77;;;;;;;;;;5062930;28;20048;-80
2023/09/27 00:12:53;;;;;;;26.65;24.45;;;;;;;;;;5078979;28;20123;-80
2023/09/27 00:15:19;;;;;;;26.08;23.80;;;;;;;;;;5079256;28;20136;-80
2023/09/27 00:17:46;;;;;;;25.67;23.63;;;;;;;;;;5078723;28;20088;-79
2023/09/27 00:20:15;;;;;;;28.70;26.20;;;;;;;;;;5097049;28;20403;-80
2023/09/27 00:22:42;;;;;;;25.38;23.23;;;;;;;;;;5078983;28;20048;-80
2023/09/27 00:25:11;;;;;;;28.40;25.95;;;;;;;;;;5079668;28;20059;-80
2023/09/27 00:27:37;;;;;;;27.05;24.85;;;;;;;;;;5079203;28;20544;-80
2023/09/27 00:30:04;;;;;;;27.58;25.25;;;;;;;;;;5078881;28;20040;-80
2023/09/27 00:32:30;;;;;;;28.60;26.10;;;;;;;;;;5079458;28;20126;-80
2023/09/27 00:34:56;;;;;;;26.77;24.58;;;;;;;;;;5079692;28;20410;-80
2023/09/27 00:37:22;;;;;;;29.40;26.98;;;;;;;;;;5078746;28;20051;-80
2023/09/27 00:39:49;;;;;;;31.92;29.33;;;;;;;;;;5062938;28;20049;-80
2023/09/27 00:42:15;;;;;;;31.08;28.20;;;;;;;;;;5078689;28;20083;-80
2023/09/27 00:44:41;;;;;;;30.65;28.05;;;;;;;;;;5062050;28;20044;-80
2023/09/27 00:47:07;;;;;;;28.70;26.17;;;;;;;;;;5045151;28;20052;-80
2023/09/27 00:49:34;;;;;;;28.48;25.98;;;;;;;;;;5078853;28;20048;-80
2023/09/27 00:52:00;;;;;;;27.42;25.13;;;;;;;;;;5078136;28;20042;-80
2023/09/27 00:54:27;;;;;;;28.30;25.98;;;;;;;;;;5061769;28;20043;-81
2023/09/27 00:56:53;;;;;;;28.67;26.23;;;;;;;;;;5078430;28;20040;-80
2023/09/27 00:59:19;;;;;;;29.90;27.50;;;;;;;;;;5096758;28;20059;-80
2023/09/27 01:01:46;;;;;;;28.92;26.38;;;;;;;;;;5078365;28;20044;-80
2023/09/27 01:04:16;;;;;;;30.15;27.45;;;;;;;;;;5096225;28;20055;-81
2023/09/27 01:06:46;;;;;;;30.83;27.92;;;;;;;;;;5078227;28;20052;-81
2023/09/27 01:09:12;;;;;;;30.67;27.83;;;;;;;;;;5078120;28;20043;-80
2023/09/27 01:11:39;;;;;;;31.63;28.75;;;;;;;;;;5077982;28;20503;-81
2023/09/27 01:14:06;;;;;;;31.48;28.83;;;;;;;;;;5061063;28;20041;-81
2023/09/27 01:16:32;;;;;;;29.58;27.15;;;;;;;;;;5095937;28;20170;-80
2023/09/27 01:19:02;;;;;;;30.85;28.25;;;;;;;;;;5077946;28;20094;-80
2023/09/27 01:21:28;;;;;;;31.95;29.23;;;;;;;;;;5077942;28;20063;-81
2023/09/27 01:23:55;;;;;;;27.88;25.63;;;;;;;;;;5077874;28;20044;-80
2023/09/27 01:26:21;;;;;;;27.33;24.88;;;;;;;;;;5078691;28;20058;-80
2023/09/27 01:28:47;;;;;;;27.92;25.73;;;;;;;;;;5078102;28;20459;-80
2023/09/27 01:31:14;;;;;;;29.70;27.33;;;;;;;;;;5078565;28;20135;-81
2023/09/27 01:33:40;;;;;;;28.77;26.33;;;;;;;;;;5077350;28;20040;-80
2023/09/27 01:36:07;;;;;;;30.75;28.15;;;;;;;;;;5060761;28;20054;-81
2023/09/27 01:38:33;;;;;;;27.17;25.08;;;;;;;;;;5060991;28;20051;-80
2023/09/27 01:40:59;;;;;;;30.52;28.00;;;;;;;;;;5060694;28;20514;-80
2023/09/27 01:43:26;;;;;;;28.73;26.23;;;;;;;;;;5077537;28;20051;-80
2023/09/27 01:45:52;;;;;;;29.13;26.67;;;;;;;;;;5061049;28;20091;-80
2023/09/27 01:48:19;;;;;;;28.42;26.02;;;;;;;;;;5077444;28;20044;-80
2023/09/27 01:50:45;;;;;;;30.58;27.88;;;;;;;;;;5044303;28;20054;-80
2023/09/27 01:53:11;;;;;;;30.20;27.45;;;;;;;;;;5076719;28;20036;-80
2023/09/27 01:55:38;;;;;;;28.63;26.23;;;;;;;;;;5060696;28;20085;-81
2023/09/27 01:58:05;;;;;;;28.23;25.83;;;;;;;;;;5078041;28;20097;-80
2023/09/27 02:00:31;;;;;;;27.38;25.17;;;;;;;;;;5060759;28;20067;-80
2023/09/27 02:02:58;;;;;;;27.45;25.10;;;;;;;;;;5076542;28;20400;-80
2023/09/27 02:05:25;;;;;;;26.52;24.17;;;;;;;;;;5077061;28;20476;-80
2023/09/27 02:07:52;;;;;;;28.35;26.00;;;;;;;;;;5077045;28;20048;-80
2023/09/27 02:10:18;;;;;;;27.88;25.58;;;;;;;;;;5076707;28;20510;-80
2023/09/27 02:12:44;;;;;;;32.58;29.67;;;;;;;;;;5076808;28;20044;-80
2023/09/27 02:15:11;;;;;;;32.28;29.27;;;;;;;;;;5077719;28;20128;-80
2023/09/27 02:17:38;;;;;;;30.77;28.05;;;;;;;;;;5074995;28;20504;-79
2023/09/27 02:20:07;;;;;;;31.92;29.13;;;;;;;;;;5040596;28;20131;-80
2023/09/27 02:22:37;;;;;;;31.35;28.65;;;;;;;;;;5057037;28;20084;-80
2023/09/27 02:25:05;;;;;;;31.83;28.60;;;;;;;;;;5056681;28;20045;-80
2023/09/27 02:27:31;;;;;;;30.80;28.00;;;;;;;;;;5056644;28;20070;-80
2023/09/27 02:29:57;;;;;;;29.50;27.02;;;;;;;;;;5056646;28;20049;-80
2023/09/27 02:32:23;;;;;;;27.90;25.58;;;;;;;;;;5056368;28;20050;-80
2023/09/27 02:34:49;;;;;;;27.20;25.00;;;;;;;;;;5057385;28;20054;-80
2023/09/27 02:37:15;;;;;;;28.35;25.95;;;;;;;;;;5040213;28;20044;-80
2023/09/27 02:39:42;;;;;;;26.80;24.75;;;;;;;;;;5056669;28;20040;-80
2023/09/27 02:42:08;;;;;;;26.83;24.63;;;;;;;;;;5056352;28;20113;-80
2023/09/27 02:44:35;;;;;;;26.13;23.92;;;;;;;;;;5040005;28;20052;-80
2023/09/27 02:47:02;;;;;;;27.30;24.95;;;;;;;;;;5057139;28;20377;-80
2023/09/27 02:49:28;;;;;;;29.98;27.58;;;;;;;;;;5056522;28;20552;-80
2023/09/27 02:51:55;;;;;;;28.08;25.55;;;;;;;;;;5057007;28;20390;-80
2023/09/27 02:54:21;;;;;;;31.05;28.15;;;;;;;;;;5055770;28;20044;-80
2023/09/27 02:56:47;;;;;;;34.25;31.25;;;;;;;;;;5056305;28;20055;-80
2023/09/27 02:59:14;;;;;;;31.15;28.15;;;;;;;;;;5056073;28;20051;-80
2023/09/27 03:01:41;;;;;;;29.00;26.52;;;;;;;;;;5056005;28;20055;-80
2023/09/27 03:04:11;;;;;;;29.88;27.08;;;;;;;;;;5056050;28;20065;-80
2023/09/27 03:06:37;;;;;;;29.55;27.17;;;;;;;;;;5056835;28;20063;-80
2023/09/27 03:09:04;;;;;;;30.27;27.75;;;;;;;;;;5039149;28;20580;-80
2023/09/27 03:11:33;;;;;;;31.33;28.67;;;;;;;;;;5055994;28;20055;-80
2023/09/27 03:13:59;;;;;;;27.48;25.35;;;;;;;;;;5055869;28;20059;-80
2023/09/27 03:16:25;;;;;;;26.92;24.55;;;;;;;;;;5056281;28;20373;-80
2023/09/27 03:18:51;;;;;;;31.80;28.80;;;;;;;;;;5067333;28;20443;-80
2023/09/27 03:21:17;;;;;;;31.58;29.08;;;;;;;;;;5075610;28;20484;-80
2023/09/27 03:23:44;;;;;;;31.00;28.40;;;;;;;;;;5075910;28;20091;-80
2023/09/27 03:26:10;;;;;;;31.30;28.50;;;;;;;;;;5075528;28;20040;-80
2023/09/27 03:28:36;;;;;;;38.72;34.95;;;;;;;;;;5059455;28;20040;-80
2023/09/27 03:31:03;;;;;;;31.58;28.92;;;;;;;;;;5059461;28;20419;-80
2023/09/27 03:33:29;;;;;;;33.28;30.23;;;;;;;;;;5075523;28;20044;-80
2023/09/27 03:35:55;;;;;;;32.33;29.67;;;;;;;;;;5075822;28;20090;-80
2023/09/27 03:38:21;;;;;;;31.85;28.65;;;;;;;;;;5076444;28;20415;-80
2023/09/27 03:40:48;;;;;;;32.95;30.05;;;;;;;;;;5075785;28;20040;-80
2023/09/27 03:43:14;;;;;;;34.55;31.65;;;;;;;;;;5075744;28;20091;-80
2023/09/27 03:45:40;;;;;;;37.00;33.75;;;;;;;;;;5093504;28;20156;-80
2023/09/27 03:48:06;;;;;;;35.60;32.30;;;;;;;;;;5075573;28;20048;-80
2023/09/27 03:50:32;;;;;;;37.40;34.10;;;;;;;;;;5059018;28;20044;-80
2023/09/27 03:52:59;;;;;;;38.13;34.95;;;;;;;;;;5058702;28;20048;-80
2023/09/27 03:55:27;;;;;;;37.90;34.58;;;;;;;;;;5075498;28;20480;-80
2023/09/27 03:57:53;;;;;;;34.00;30.80;;;;;;;;;;5075611;28;20498;-80
2023/09/27 04:00:19;;;;;;;39.28;35.78;;;;;;;;;;5093408;28;20047;-80
2023/09/27 04:02:46;;;;;;;40.95;37.45;;;;;;;;;;5075582;28;20048;-80
2023/09/27 04:05:13;;;;;;;41.20;37.22;;;;;;;;;;5076354;28;20044;-80
2023/09/27 04:07:39;;;;;;;42.70;39.03;;;;;;;;;;5076282;28;20476;-80
2023/09/27 04:10:07;;;;;;;46.97;42.58;;;;;;;;;;5058822;28;20046;-80
2023/09/27 04:12:33;;;;;;;46.90;42.42;;;;;;;;;;5058525;28;20043;-80
2023/09/27 04:15:00;;;;;;;44.47;40.60;;;;;;;;;;5075460;28;20051;-80
2023/09/27 04:17:26;;;;;;;44.90;40.90;;;;;;;;;;5075108;28;20051;-80
2023/09/27 04:19:53;;;;;;;45.78;41.28;;;;;;;;;;5074553;28;20446;-80
2023/09/27 04:22:19;;;;;;;47.25;42.92;;;;;;;;;;5075696;28;20048;-80
2023/09/27 04:24:45;;;;;;;53.30;48.08;;;;;;;;;;5075556;28;20051;-80
2023/09/27 04:27:12;;;;;;;48.20;43.78;;;;;;;;;;5077199;28;20503;-80
2023/09/27 04:29:38;;;;;;;43.58;39.78;;;;;;;;;;5079234;28;20083;-80
2023/09/27 04:32:04;;;;;;;43.83;39.97;;;;;;;;;;5078705;28;20047;-80
2023/09/27 04:34:31;;;;;;;44.72;40.78;;;;;;;;;;5078885;28;20123;-80
2023/09/27 04:36:57;;;;;;;44.15;39.95;;;;;;;;;;5078914;28;20048;-80
2023/09/27 04:39:27;;;;;;;41.53;37.92;;;;;;;;;;5062098;28;20461;-80
2023/09/27 04:41:53;;;;;;;42.05;38.55;;;;;;;;;;5078719;28;20446;-80
2023/09/27 04:44:19;;;;;;;45.60;41.50;;;;;;;;;;5062289;28;20051;-80
2023/09/27 04:46:45;;;;;;;44.92;40.90;;;;;;;;;;5078672;28;20098;-80
2023/09/27 04:49:11;;;;;;;42.45;38.58;;;;;;;;;;5079421;28;20180;-80
2023/09/27 04:51:38;;;;;;;43.72;39.65;;;;;;;;;;5078850;28;20048;-80
2023/09/27 04:54:04;;;;;;;44.83;40.78;;;;;;;;;;5078540;28;20040;-80
2023/09/27 04:56:30;;;;;;;38.42;35.13;;;;;;;;;;5061634;28;20048;-80
2023/09/27 04:59:01;;;;;;;48.00;43.83;;;;;;;;;;5062058;28;20087;-80
2023/09/27 05:01:28;;;;;;;46.92;42.65;;;;;;;;;;5078128;28;20048;-80
2023/09/27 05:03:54;;;;;;;43.70;39.67;;;;;;;;;;5079151;28;20097;-80
2023/09/27 05:06:20;;;;;;;44.95;41.05;;;;;;;;;;5078557;28;20040;-80
2023/09/27 05:08:47;;;;;;;52.08;47.33;;;;;;;;;;5078709;28;20040;-80
2023/09/27 05:11:13;;;;;;;41.53;38.08;;;;;;;;;;5077983;28;20082;-80
2023/09/27 05:13:39;;;;;;;45.40;41.47;;;;;;;;;;5061597;28;20048;-80
2023/09/27 05:16:05;;;;;;;45.53;41.55;;;;;;;;;;5078160;28;20051;-80
2023/09/27 05:18:31;;;;;;;44.97;40.95;;;;;;;;;;5061354;28;20400;-79
2023/09/27 05:21:00;;;;;;;47.50;43.33;;;;;;;;;;5078105;28;20075;-80
2023/09/27 05:23:26;;;;;;;46.55;42.45;;;;;;;;;;5077945;28;20480;-80
2023/09/27 05:25:52;;;;;;;48.00;43.53;;;;;;;;;;5078631;28;20048;-80
2023/09/27 05:28:18;;;;;;;49.38;44.75;;;;;;;;;;5095743;28;20043;-80
2023/09/27 05:30:44;;;;;;;47.88;43.80;;;;;;;;;;5095726;28;20135;-80
2023/09/27 05:33:10;;;;;;;48.55;44.15;;;;;;;;;;5077513;28;20040;-80
2023/09/27 05:35:36;;;;;;;44.17;40.42;;;;;;;;;;5077995;28;20132;-80
2023/09/27 05:38:03;;;;;;;51.50;46.60;;;;;;;;;;5077444;28;20055;-80
2023/09/27 05:40:29;;;;;;;47.20;42.95;;;;;;;;;;5078405;28;20376;-80
2023/09/27 05:42:55;;;;;;;53.10;48.33;;;;;;;;;;5077590;28;20121;-80
2023/09/27 05:45:21;;;;;;;55.30;50.47;;;;;;;;;;5060893;28;20050;-80
2023/09/27 05:47:47;;;;;;;56.65;51.50;;;;;;;;;;5078384;28;20047;-79
2023/09/27 05:50:13;;;;;;;55.72;50.67;;;;;;;;;;5095351;28;20400;-79
2023/09/27 05:52:43;;;;;;;60.90;55.17;;;;;;;;;;5078073;28;20423;-79
2023/09/27 05:55:09;;;;;;;58.28;52.95;;;;;;;;;;5060246;28;20055;-79
2023/09/27 05:57:35;;;;;;;53.97;49.25;;;;;;;;;;5077326;28;20036;-79
2023/09/27 06:00:12;;;;;;;59.83;54.00;;;;;;;;;;5043688;28;20139;-80
2023/09/27 06:02:38;;;;;;;59.90;54.08;;;;;;;;;;5095303;28;20503;-79
2023/09/27 06:05:06;;;;;;;57.63;52.28;;;;;;;;;;5060118;28;20094;-79
2023/09/27 06:07:33;;;;;;;59.42;53.92;;;;;;;;;;5076816;28;20460;-79
2023/09/27 06:09:59;;;;;;;60.78;55.05;;;;;;;;;;5076822;28;20433;-79
2023/09/27 06:12:25;;;;;;;56.30;51.15;;;;;;;;;;5094890;28;20051;-79
2023/09/27 06:14:51;;;;;;;58.20;52.95;;;;;;;;;;5059999;28;20168;-79
2023/09/27 06:17:17;;;;;;;57.15;51.47;;;;;;;;;;5077134;28;20056;-79
2023/09/27 06:19:44;;;;;;;56.53;51.33;;;;;;;;;;5076212;28;20044;-79
2023/09/27 06:22:13;;;;;;;59.08;53.72;;;;;;;;;;5076992;28;20395;-79
2023/09/27 06:24:40;;;;;;;55.40;50.20;;;;;;;;;;5076777;28;20044;-80
2023/09/27 06:27:07;;;;;;;61.05;55.10;;;;;;;;;;5059945;28;20496;-79
2023/09/27 06:29:34;;;;;;;58.95;53.40;;;;;;;;;;5043731;28;20055;-79
2023/09/27 06:32:00;;;;;;;56.55;51.22;;;;;;;;;;5077371;28;20048;-79
2023/09/27 06:34:26;;;;;;;58.55;53.28;;;;;;;;;;5076768;28;20051;-79
2023/09/27 06:36:56;;;;;;;56.38;51.10;;;;;;;;;;5059551;28;20048;-79
2023/09/27 06:39:24;;;;;;;57.45;52.20;;;;;;;;;;5077209;28;20090;-79
2023/09/27 06:41:51;;;;;;;55.28;50.28;;;;;;;;;;5076345;28;20082;-79
2023/09/27 06:44:18;;;;;;;56.40;51.20;;;;;;;;;;5076550;28;20601;-79
2023/09/27 06:46:46;;;;;;;58.10;52.63;;;;;;;;;;5077111;28;20434;-79
2023/09/27 06:49:15;;;;;;;58.67;53.05;;;;;;;;;;5093866;28;20088;-79
2023/09/27 06:51:43;;;;;;;60.03;54.50;;;;;;;;;;5094079;28;20056;-79
2023/09/27 06:54:09;;;;;;;58.08;52.75;;;;;;;;;;5076148;28;20056;-80
2023/09/27 06:56:35;;;;;;;56.42;51.20;;;;;;;;;;5076267;28;20089;-79
2023/09/27 06:59:02;;;;;;;57.20;51.95;;;;;;;;;;5076607;28;20052;-79
2023/09/27 07:01:28;;;;;;;56.05;50.72;;;;;;;;;;5076159;28;20059;-79
2023/09/27 07:03:55;;;;;;;54.40;49.45;;;;;;;;;;5076151;28;20043;-79
2023/09/27 07:06:21;;;;;;;56.63;51.35;;;;;;;;;;5076068;28;20461;-80
2023/09/27 07:08:52;;;;;;;54.88;49.40;;;;;;;;;;5076872;28;20051;-79
2023/09/27 07:11:19;;;;;;;55.38;50.38;;;;;;;;;;5059429;28;20051;-80
2023/09/27 07:13:46;;;;;;;53.60;48.38;;;;;;;;;;5075767;28;20040;-79
2023/09/27 07:16:26;;;;;;;54.28;49.15;;;;;;;;;;5075998;28;20369;-80
2023/09/27 07:18:53;;;;;;;56.50;51.40;;;;;;;;;;5075441;28;20488;-80
2023/09/27 07:21:24;;;;;;;55.50;50.40;;;;;;;;;;5059229;28;20106;-79
2023/09/27 07:23:51;;;;;;;56.00;50.83;;;;;;;;;;5075949;28;20488;-80
2023/09/27 07:26:17;;;;;;;56.35;51.30;;;;;;;;;;5076625;28;20089;-80
2023/09/27 07:28:45;;;;;;;60.85;55.15;;;;;;;;;;5076623;28;20052;-80
2023/09/27 07:31:17;;;;;;;61.22;55.53;;;;;;;;;;5075701;28;20484;-80
2023/09/27 07:33:52;;;;;;;56.58;51.38;;;;;;;;;;5075757;28;20051;-80
2023/09/27 07:36:20;;;;;;;56.17;50.88;;;;;;;;;;5076626;28;20052;-80
2023/09/27 07:38:49;;;;;;;54.65;50.00;;;;;;;;;;5076005;28;20052;-80
2023/09/27 07:41:16;;;;;;;56.72;51.75;;;;;;;;;;5075668;28;20048;-80
2023/09/27 07:43:42;;;;;;;57.33;52.15;;;;;;;;;;5076014;28;20055;-80
2023/09/27 07:46:09;;;;;;;56.03;51.03;;;;;;;;;;5075769;28;20048;-80
2023/09/27 07:48:38;;;;;;;56.47;51.28;;;;;;;;;;5058884;28;20096;-80
2023/09/27 07:51:14;;;;;;;60.40;54.72;;;;;;;;;;5075926;28;20040;-80
2023/09/27 07:53:40;;;;;;;59.58;53.88;;;;;;;;;;5058641;28;20037;-80
2023/09/27 07:56:09;;;;;;;55.70;50.75;;;;;;;;;;5075396;28;20059;-80
2023/09/27 07:58:36;;;;;;;62.10;56.15;;;;;;;;;;5076415;28;20113;-80
2023/09/27 08:01:02;;;;;;;59.38;53.75;;;;;;;;;;5075966;28;20054;-80
2023/09/27 08:03:29;;;;;;;57.65;52.35;;;;;;;;;;5079551;28;20060;-80
2023/09/27 08:05:55;;;;;;;59.03;53.33;;;;;;;;;;5062878;28;20048;-80
2023/09/27 08:08:22;;;;;;;57.92;52.53;;;;;;;;;;5062896;28;20105;-80
2023/09/27 08:10:49;;;;;;;56.25;51.15;;;;;;;;;;5079372;28;20048;-80
2023/09/27 08:13:16;;;;;;;58.55;52.92;;;;;;;;;;5079901;28;20074;-80
2023/09/27 08:15:43;;;;;;;57.33;52.17;;;;;;;;;;5062654;28;20488;-80
2023/09/27 08:18:09;;;;;;;55.85;50.50;;;;;;;;;;5079258;28;20056;-80
2023/09/27 08:20:35;;;;;;;59.45;53.97;;;;;;;;;;5078983;28;20058;-80
2023/09/27 08:23:02;;;;;;;58.38;53.08;;;;;;;;;;5079395;28;20090;-80
2023/09/27 08:25:28;;;;;;;59.55;54.25;;;;;;;;;;5079316;28;20051;-80
2023/09/27 08:27:55;;;;;;;55.88;50.88;;;;;;;;;;5062151;28;20131;-80
2023/09/27 08:30:21;;;;;;;54.63;49.60;;;;;;;;;;5062585;28;20088;-80
2023/09/27 08:32:47;;;;;;;56.03;50.40;;;;;;;;;;5079597;28;20451;-80
2023/09/27 08:35:13;;;;;;;59.00;53.38;;;;;;;;;;5078910;28;20105;-80
2023/09/27 08:37:39;;;;;;;55.63;50.15;;;;;;;;;;5078852;28;20048;-80
2023/09/27 08:40:12;;;;;;;52.10;47.13;;;;;;;;;;5078866;28;20043;-80
2023/09/27 08:42:39;;;;;;;51.40;46.78;;;;;;;;;;5079666;28;20117;-80
2023/09/27 08:45:12;;;;;;;51.10;46.30;;;;;;;;;;5078742;28;20400;-80
2023/09/27 08:47:39;;;;;;;47.85;43.80;;;;;;;;;;5078671;28;20052;-80
2023/09/27 08:50:05;;;;;;;48.03;43.50;;;;;;;;;;5078696;28;20090;-80
2023/09/27 08:52:31;;;;;;;46.33;42.42;;;;;;;;;;5078485;28;20524;-80
2023/09/27 08:54:57;;;;;;;45.95;41.85;;;;;;;;;;5079268;28;20494;-80
2023/09/27 08:57:28;;;;;;;46.83;42.65;;;;;;;;;;5062711;28;20131;-80
2023/09/27 08:59:55;;;;;;;44.08;40.13;;;;;;;;;;5096861;28;20048;-80
2023/09/27 09:02:23;;;;;;;42.72;39.03;;;;;;;;;;5062739;28;20126;-80
2023/09/27 09:04:50;;;;;;;43.40;39.67;;;;;;;;;;5078322;28;20040;-80
2023/09/27 09:07:17;;;;;;;41.33;37.67;;;;;;;;;;5079071;28;20383;-80
2023/09/27 09:09:45;;;;;;;41.08;37.58;;;;;;;;;;5061691;28;20054;-80
2023/09/27 09:12:12;;;;;;;40.08;36.50;;;;;;;;;;5077974;28;20051;-80
2023/09/27 09:14:43;;;;;;;42.03;38.42;;;;;;;;;;5061453;28;20048;-81
2023/09/27 09:17:10;;;;;;;36.40;33.38;;;;;;;;;;5061379;28;20048;-81
2023/09/27 09:19:38;;;;;;;40.15;36.47;;;;;;;;;;5078487;28;20419;-80
2023/09/27 09:22:08;;;;;;;37.25;34.10;;;;;;;;;;5078303;28;20109;-81
2023/09/27 09:24:41;;;;;;;38.50;35.22;;;;;;;;;;5078852;28;20192;-81
2023/09/27 09:27:11;;;;;;;39.75;36.22;;;;;;;;;;5078835;28;20052;-80
2023/09/27 09:29:47;;;;;;;39.42;36.00;;;;;;;;;;5078209;28;20051;-80
2023/09/27 09:32:15;;;;;;;36.80;33.80;;;;;;;;;;5078059;28;20067;-80
2023/09/27 09:34:43;;;;;;;39.58;36.17;;;;;;;;;;5077793;28;20052;-80
2023/09/27 09:37:35;;;;;;;38.33;34.75;;;;;;;;;;5061328;28;20044;-80
2023/09/27 09:40:14;;;;;;;39.42;35.85;;;;;;;;;;5056376;28;20052;-80
2023/09/27 09:42:42;;;;;;;37.50;34.28;;;;;;;;;;5061053;28;20044;-81
2023/09/27 09:45:11;;;;;;;41.13;37.42;;;;;;;;;;5078431;28;20040;-80
2023/09/27 09:47:43;;;;;;;37.25;33.90;;;;;;;;;;5077541;28;20048;-81
2023/09/27 09:50:16;;;;;;;39.63;36.15;;;;;;;;;;5077559;28;20051;-80
2023/09/27 09:52:45;;;;;;;39.22;35.88;;;;;;;;;;5061032;28;20047;-81
2023/09/27 09:55:14;;;;;;;42.55;38.85;;;;;;;;;;5060654;28;20055;-80
2023/09/27 09:57:41;;;;;;;41.40;37.60;;;;;;;;;;5061157;28;20048;-80
2023/09/27 10:00:18;;;;;;;41.55;37.65;;;;;;;;;;5060732;28;20074;-80
2023/09/27 10:02:53;;;;;;;41.47;37.80;;;;;;;;;;5078155;28;20070;-80
2023/09/27 10:05:19;;;;;;;38.45;35.28;;;;;;;;;;5078131;28;20373;-80
2023/09/27 10:07:46;;;;;;;39.83;36.47;;;;;;;;;;5077456;28;20105;-80
2023/09/27 10:10:15;;;;;;;39.42;36.08;;;;;;;;;;5077156;28;20127;-80
2023/09/27 10:12:44;;;;;;;36.15;32.97;;;;;;;;;;5076892;28;20047;-81
2023/09/27 10:15:10;;;;;;;35.22;32.10;;;;;;;;;;5077005;28;20048;-80
2023/09/27 10:17:37;;;;;;;32.25;29.33;;;;;;;;;;5093362;28;20043;-81
2023/09/27 10:20:13;;;;;;;32.60;29.95;;;;;;;;;;5057903;28;20056;-80
2023/09/27 10:22:44;;;;;;;31.92;29.00;;;;;;;;;;5057825;28;20103;-81
2023/09/27 10:25:31;;;;;;;29.33;26.75;;;;;;;;;;5039899;28;20048;-80
2023/09/27 10:28:01;;;;;;;29.75;27.20;;;;;;;;;;5057663;28;20479;-80
2023/09/27 10:30:27;;;;;;;28.77;26.40;;;;;;;;;;5056489;28;20396;-80
2023/09/27 10:33:17;;;;;;;27.42;25.00;;;;;;;;;;5056638;28;20553;-80
2023/09/27 10:36:06;;;;;;;26.75;24.55;;;;;;;;;;5056554;28;20045;-79
2023/09/27 10:38:47;;;;;;;27.98;25.40;;;;;;;;;;5010977;28;20515;-81
2023/09/27 10:41:32;;;;;;;27.98;25.27;;;;;;;;;;5056574;28;20048;-80
2023/09/27 10:43:58;;;;;;;;;;;;;;;;;;5074628;28;20435;-81
2023/09/27 10:46:24;;;;;;;29.80;27.25;;;;;;;;;;5057369;28;19924;-80
2023/09/27 10:48:54;;;;;;;29.27;26.58;;;;;;;;;;5040052;28;20523;-80
2023/09/27 10:51:25;;;;;;;28.50;26.10;;;;;;;;;;5056392;28;20055;-80
2023/09/27 10:53:52;;;;;;;30.80;28.05;;;;;;;;;;5056943;28;20048;-80
2023/09/27 10:56:18;;;;;;;31.20;28.58;;;;;;;;;;5056286;28;20101;-81
2023/09/27 10:58:50;;;;;;;30.77;27.95;;;;;;;;;;5057125;28;20056;-80
2023/09/27 11:01:20;;;;;;;31.08;28.38;;;;;;;;;;5055945;28;20481;-80
2023/09/27 11:03:46;;;;;;;29.70;26.92;;;;;;;;;;5040251;28;20083;-81
2023/09/27 11:06:12;;;;;;;31.63;29.02;;;;;;;;;;5056358;28;20059;-81
2023/09/27 11:08:43;;;;;;;30.75;28.17;;;;;;;;;;5039382;28;20500;-81
2023/09/27 11:11:11;;;;;;;30.85;28.25;;;;;;;;;;5073740;28;20049;-81
2023/09/27 11:13:43;;;;;;;30.08;27.38;;;;;;;;;;5073670;28;20052;-81
2023/09/27 11:16:11;;;;;;;27.55;25.10;;;;;;;;;;5055991;28;20052;-80
2023/09/27 11:18:43;;;;;;;26.85;24.52;;;;;;;;;;5065161;28;20507;-81
2023/09/27 11:21:10;;;;;;;25.75;23.35;;;;;;;;;;5076360;28;20400;-80
2023/09/27 11:23:55;;;;;;;23.35;21.13;;;;;;;;;;5059870;28;20055;-80
2023/09/27 11:26:22;;;;;;;21.63;19.92;;;;;;;;;;5075570;28;20044;-80
2023/09/27 11:28:57;;;;;;;22.73;20.92;;;;;;;;;;5076813;28;20055;-80
2023/09/27 11:31:24;;;;;;;23.38;21.25;;;;;;;;;;5059049;28;20052;-80
2023/09/27 11:33:50;;;;;;;21.75;19.52;;;;;;;;;;5075597;28;20057;-80
2023/09/27 11:36:16;;;;;;;20.77;18.95;;;;;;;;;;5076083;28;20040;-80
2023/09/27 11:38:52;;;;;;;18.48;16.95;;;;;;;;;;5097954;28;20186;-79
2023/09/27 11:41:18;;;;;;;17.35;16.05;;;;;;;;;;5080010;28;20407;-80
2023/09/27 11:43:45;;;;;;;16.05;14.55;;;;;;;;;;5079888;28;20044;-79
2023/09/27 11:46:11;;;;;;;15.50;14.18;;;;;;;;;;5046805;28;20047;-79
2023/09/27 11:48:39;;;;;;;13.45;12.40;;;;;;;;;;5079858;28;20134;-79
2023/09/27 11:51:05;;;;;;;14.05;12.80;;;;;;;;;;5080555;28;20044;-79
2023/09/27 11:53:31;;;;;;;15.68;14.40;;;;;;;;;;5079303;28;20040;-79
2023/09/27 11:55:59;;;;;;;14.82;13.48;;;;;;;;;;5080577;28;20110;-79
2023/09/27 11:58:26;;;;;;;13.32;12.27;;;;;;;;;;5062737;28;20048;-79
2023/09/27 12:00:52;;;;;;;14.65;13.40;;;;;;;;;;5079566;28;20054;-79
2023/09/27 12:03:18;;;;;;;12.93;11.65;;;;;;;;;;5080312;28;20407;-79
2023/09/27 12:05:44;;;;;;;13.77;12.50;;;;;;;;;;5080352;28;20044;-79
2023/09/27 12:08:11;;;;;;;12.45;11.30;;;;;;;;;;5079538;28;20129;-79
2023/09/27 12:10:37;;;;;;;14.63;13.40;;;;;;;;;;5063703;28;20048;-79
2023/09/27 12:13:03;;;;;;;14.95;13.50;;;;;;;;;;5078835;28;20036;-79
2023/09/27 12:15:29;;;;;;;14.38;13.27;;;;;;;;;;5079251;28;20390;-80
2023/09/27 12:17:55;;;;;;;13.60;12.35;;;;;;;;;;5079075;28;20147;-80
2023/09/27 12:20:22;;;;;;;15.77;14.30;;;;;;;;;;5079302;28;20044;-80
2023/09/27 12:22:48;;;;;;;15.60;14.32;;;;;;;;;;5046118;28;20047;-79
2023/09/27 12:25:14;;;;;;;15.50;13.90;;;;;;;;;;5062551;28;20071;-79
2023/09/27 12:27:41;;;;;;;15.13;13.77;;;;;;;;;;5063373;28;20418;-80
2023/09/27 12:30:08;;;;;;;16.13;14.73;;;;;;;;;;5079104;28;20089;-80
2023/09/27 12:32:34;;;;;;;15.10;13.82;;;;;;;;;;5078908;28;20425;-80
2023/09/27 12:35:00;;;;;;;14.70;13.57;;;;;;;;;;5079050;28;20062;-79
2023/09/27 12:37:26;;;;;;;16.92;15.43;;;;;;;;;;5078770;28;20047;-79
2023/09/27 12:39:53;;;;;;;16.15;14.85;;;;;;;;;;5078900;28;20048;-80
2023/09/27 12:42:20;;;;;;;14.88;13.57;;;;;;;;;;5079063;28;20078;-80
2023/09/27 12:44:46;;;;;;;14.98;13.88;;;;;;;;;;5096708;28;20092;-79
2023/09/27 12:47:14;;;;;;;15.45;14.02;;;;;;;;;;5078276;28;20044;-80
2023/09/27 12:49:40;;;;;;;14.27;12.80;;;;;;;;;;5079490;28;20059;-80
2023/09/27 12:52:06;;;;;;;14.07;12.98;;;;;;;;;;5078651;28;20048;-80
2023/09/27 12:54:32;;;;;;;13.80;12.50;;;;;;;;;;5096180;28;20491;-83
2023/09/27 12:56:59;;;;;;;11.95;10.95;;;;;;;;;;5079356;28;20055;-80
2023/09/27 12:59:26;;;;;;;11.20;10.18;;;;;;;;;;5078546;28;20048;-80
2023/09/27 13:01:52;;;;;;;10.02;9.13;;;;;;;;;;5061854;28;20476;-80
2023/09/27 13:04:18;;;;;;;10.90;9.57;;;;;;;;;;5062499;28;20051;-80
2023/09/27 13:06:45;;;;;;;7.82;7.13;;;;;;;;;;5078680;28;20131;-79
2023/09/27 13:09:11;;;;;;;7.82;5.95;;;;;;;;;;5061494;28;20104;-80
2023/09/27 13:11:37;;;;;;;6.38;5.57;;;;;;;;;;5079127;28;20044;-79
2023/09/27 13:14:03;;;;;;;8.77;6.35;;;;;;;;;;5078821;28;20044;-80
2023/09/27 13:16:29;;;;;;;10.50;5.25;;;;;;;;;;5078661;28;20044;-79
2023/09/27 13:18:55;;;;;;;5.60;5.03;;;;;;;;;;5078186;28;20469;-80
2023/09/27 13:21:21;;;;;;;7.43;5.35;;;;;;;;;;5078436;28;20059;-80
2023/09/27 13:23:48;;;;;;;6.07;5.47;;;;;;;;;;5062363;28;20059;-80
2023/09/27 13:26:14;;;;;;;5.55;4.10;;;;;;;;;;5078046;28;20048;-79
2023/09/27 13:28:40;;;;;;;3.78;2.70;;;;;;;;;;5062644;28;20113;-79
2023/09/27 13:31:07;;;;;;;3.95;3.65;;;;;;;;;;5077908;28;20044;-80
2023/09/27 13:33:34;;;;;;;3.72;3.40;;;;;;;;;;5078495;28;20431;-80
2023/09/27 13:36:00;;;;;;;4.00;3.70;;;;;;;;;;5078001;28;20074;-79
2023/09/27 13:38:26;;;;;;;4.70;3.10;;;;;;;;;;5061473;28;20044;-80
2023/09/27 13:40:52;;;;;;;3.85;3.03;;;;;;;;;;5078026;28;20127;-80
2023/09/27 13:43:19;;;;;;;4.75;2.67;;;;;;;;;;5077382;28;20055;-82
2023/09/27 13:45:46;;;;;;;4.05;3.63;;;;;;;;;;5078301;28;20176;-81
2023/09/27 13:48:12;;;;;;;4.10;2.70;;;;;;;;;;5061803;28;20368;-80
2023/09/27 13:50:38;;;;;;;4.13;2.25;;;;;;;;;;5077603;28;20539;-80
2023/09/27 13:53:04;;;;;;;4.55;2.40;;;;;;;;;;5077611;28;20040;-80
2023/09/27 13:55:30;;;;;;;3.47;2.25;;;;;;;;;;5060846;28;20149;-81
2023/09/27 13:57:57;;;;;;;4.20;3.08;;;;;;;;;;5077482;28;20052;-81
2023/09/27 14:00:23;;;;;;;4.78;2.85;;;;;;;;;;5076505;28;20530;-81
2023/09/27 14:02:49;;;;;;;5.88;3.33;;;;;;;;;;5060733;28;20048;-81
2023/09/27 14:05:15;;;;;;;2.92;2.72;;;;;;;;;;5095134;28;20048;-82
2023/09/27 14:07:42;;;;;;;3.53;3.03;;;;;;;;;;5076738;28;20082;-80
2023/09/27 14:10:08;;;;;;;3.25;2.80;;;;;;;;;;5076646;28;20051;-80
2023/09/27 14:12:35;;;;;;;4.60;2.80;;;;;;;;;;5076841;28;20083;-80
2023/09/27 14:15:01;;;;;;;4.75;4.22;;;;;;;;;;5076746;28;20036;-80
2023/09/27 14:17:27;;;;;;;5.18;4.72;;;;;;;;;;5077002;28;20040;-80
2023/09/27 14:19:55;;;;;;;4.53;4.03;;;;;;;;;;5056971;28;20048;-80